sensor_id;sensor_type;location;lat;lon;timestamp;P1;durP1;ratioP1;P2;durP2;ratioP2
76322;SDS011;65141;42.964;21.838;2022-12-18T00:01:41;45.87;;;27.23;;
76322;SDS011;65141;42.964;21.838;2022-12-18T00:04:01;45.85;;;27.77;;
76322;SDS011;65141;42.964;21.838;2022-12-18T00:06:28;46.92;;;28.17;;
76322;SDS011;65141;42.964;21.838;2022-12-18T00:08:55;48.30;;;28.55;;
76322;SDS011;65141;42.964;21.838;2022-12-18T00:11:22;46.27;;;28.20;;
76322;SDS011;65141;42.964;21.838;2022-12-18T00:13:49;48.63;;;29.10;;
76322;SDS011;65141;42.964;21.838;2022-12-18T00:16:17;48.80;;;28.48;;
76322;SDS011;65141;42.964;21.838;2022-12-18T00:18:47;47.78;;;28.88;;
76322;SDS011;65141;42.964;21.838;2022-12-18T00:21:13;47.35;;;28.63;;
76322;SDS011;65141;42.964;21.838;2022-12-18T00:23:40;52.70;;;30.73;;
76322;SDS011;65141;42.964;21.838;2022-12-18T00:26:26;45.13;;;27.13;;
76322;SDS011;65141;42.964;21.838;2022-12-18T00:28:52;51.80;;;31.25;;
76322;SDS011;65141;42.964;21.838;2022-12-18T00:31:20;50.97;;;30.23;;
76322;SDS011;65141;42.964;21.838;2022-12-18T00:33:46;50.47;;;30.63;;
76322;SDS011;65141;42.964;21.838;2022-12-18T00:36:16;50.67;;;31.58;;
76322;SDS011;65141;42.964;21.838;2022-12-18T00:38:43;51.65;;;30.80;;
76322;SDS011;65141;42.964;21.838;2022-12-18T00:41:10;52.72;;;32.47;;
76322;SDS011;65141;42.964;21.838;2022-12-18T00:43:37;51.10;;;30.05;;
76322;SDS011;65141;42.964;21.838;2022-12-18T00:46:04;52.65;;;31.05;;
76322;SDS011;65141;42.964;21.838;2022-12-18T00:48:30;53.03;;;29.05;;
76322;SDS011;65141;42.964;21.838;2022-12-18T00:50:56;53.90;;;31.87;;
76322;SDS011;65141;42.964;21.838;2022-12-18T00:53:22;52.47;;;32.10;;
76322;SDS011;65141;42.964;21.838;2022-12-18T00:55:49;53.10;;;31.53;;
76322;SDS011;65141;42.964;21.838;2022-12-18T00:58:15;51.65;;;32.00;;
76322;SDS011;65141;42.964;21.838;2022-12-18T01:00:42;54.58;;;31.92;;
76322;SDS011;65141;42.964;21.838;2022-12-18T01:03:09;52.38;;;31.55;;
76322;SDS011;65141;42.964;21.838;2022-12-18T01:05:38;52.05;;;31.40;;
76322;SDS011;65141;42.964;21.838;2022-12-18T01:08:04;55.65;;;32.80;;
76322;SDS011;65141;42.964;21.838;2022-12-18T01:10:30;52.58;;;31.88;;
76322;SDS011;65141;42.964;21.838;2022-12-18T01:12:56;52.63;;;31.55;;
76322;SDS011;65141;42.964;21.838;2022-12-18T01:15:22;51.88;;;31.67;;
76322;SDS011;65141;42.964;21.838;2022-12-18T01:17:49;52.40;;;31.65;;
76322;SDS011;65141;42.964;21.838;2022-12-18T01:20:17;51.22;;;30.55;;
76322;SDS011;65141;42.964;21.838;2022-12-18T01:22:43;50.55;;;31.58;;
76322;SDS011;65141;42.964;21.838;2022-12-18T01:25:09;53.53;;;33.30;;
76322;SDS011;65141;42.964;21.838;2022-12-18T01:27:35;49.90;;;30.17;;
76322;SDS011;65141;42.964;21.838;2022-12-18T01:30:02;49.13;;;30.23;;
76322;SDS011;65141;42.964;21.838;2022-12-18T01:32:29;47.73;;;29.60;;
76322;SDS011;65141;42.964;21.838;2022-12-18T01:34:55;49.27;;;30.40;;
76322;SDS011;65141;42.964;21.838;2022-12-18T01:37:22;47.65;;;29.60;;
76322;SDS011;65141;42.964;21.838;2022-12-18T01:39:48;47.93;;;30.17;;
76322;SDS011;65141;42.964;21.838;2022-12-18T01:42:15;46.10;;;28.30;;
76322;SDS011;65141;42.964;21.838;2022-12-18T01:49:51;50.17;;;31.48;;
76322;SDS011;65141;42.964;21.838;2022-12-18T01:52:18;49.25;;;30.83;;
76322;SDS011;65141;42.964;21.838;2022-12-18T01:54:45;47.47;;;30.38;;
76322;SDS011;65141;42.964;21.838;2022-12-18T01:57:12;44.85;;;29.02;;
76322;SDS011;65141;42.964;21.838;2022-12-18T01:59:38;45.55;;;28.95;;
76322;SDS011;65141;42.964;21.838;2022-12-18T02:02:04;47.88;;;29.85;;
76322;SDS011;65141;42.964;21.838;2022-12-18T02:04:31;45.40;;;28.92;;
76322;SDS011;65141;42.964;21.838;2022-12-18T02:09:26;45.83;;;29.75;;
76322;SDS011;65141;42.964;21.838;2022-12-18T02:12:16;43.63;;;27.90;;
76322;SDS011;65141;42.964;21.838;2022-12-18T02:15:00;44.10;;;29.40;;
76322;SDS011;65141;42.964;21.838;2022-12-18T02:17:35;43.78;;;28.23;;
76322;SDS011;65141;42.964;21.838;2022-12-18T02:25:23;43.10;;;27.43;;
76322;SDS011;65141;42.964;21.838;2022-12-18T02:27:52;44.23;;;27.93;;
76322;SDS011;65141;42.964;21.838;2022-12-18T02:30:18;45.15;;;27.48;;
76322;SDS011;65141;42.964;21.838;2022-12-18T02:32:46;43.28;;;27.98;;
76322;SDS011;65141;42.964;21.838;2022-12-18T02:35:17;43.80;;;26.58;;
76322;SDS011;65141;42.964;21.838;2022-12-18T02:37:46;44.63;;;26.67;;
76322;SDS011;65141;42.964;21.838;2022-12-18T02:40:13;48.15;;;29.60;;
76322;SDS011;65141;42.964;21.838;2022-12-18T02:42:40;47.37;;;28.97;;
76322;SDS011;65141;42.964;21.838;2022-12-18T02:45:06;43.50;;;28.50;;
76322;SDS011;65141;42.964;21.838;2022-12-18T02:47:33;43.75;;;27.30;;
76322;SDS011;65141;42.964;21.838;2022-12-18T02:50:05;44.33;;;29.02;;
76322;SDS011;65141;42.964;21.838;2022-12-18T02:57:37;44.93;;;28.13;;
76322;SDS011;65141;42.964;21.838;2022-12-18T03:00:52;43.95;;;27.35;;
76322;SDS011;65141;42.964;21.838;2022-12-18T03:05:33;44.38;;;27.98;;
76322;SDS011;65141;42.964;21.838;2022-12-18T03:08:02;45.88;;;29.05;;
76322;SDS011;65141;42.964;21.838;2022-12-18T03:10:29;45.35;;;28.73;;
76322;SDS011;65141;42.964;21.838;2022-12-18T03:13:04;44.88;;;28.63;;
76322;SDS011;65141;42.964;21.838;2022-12-18T03:15:35;43.15;;;28.35;;
76322;SDS011;65141;42.964;21.838;2022-12-18T03:18:04;44.67;;;27.37;;
76322;SDS011;65141;42.964;21.838;2022-12-18T03:20:32;43.60;;;27.88;;
76322;SDS011;65141;42.964;21.838;2022-12-18T03:23:09;43.08;;;27.17;;
76322;SDS011;65141;42.964;21.838;2022-12-18T03:25:38;42.60;;;26.20;;
76322;SDS011;65141;42.964;21.838;2022-12-18T03:28:05;42.88;;;26.90;;
76322;SDS011;65141;42.964;21.838;2022-12-18T03:30:33;44.17;;;27.55;;
76322;SDS011;65141;42.964;21.838;2022-12-18T03:33:10;42.15;;;27.02;;
76322;SDS011;65141;42.964;21.838;2022-12-18T03:35:39;43.33;;;27.27;;
76322;SDS011;65141;42.964;21.838;2022-12-18T03:38:06;42.45;;;26.30;;
76322;SDS011;65141;42.964;21.838;2022-12-18T03:40:40;42.72;;;26.85;;
76322;SDS011;65141;42.964;21.838;2022-12-18T03:43:10;44.00;;;27.05;;
76322;SDS011;65141;42.964;21.838;2022-12-18T03:45:38;43.17;;;26.42;;
76322;SDS011;65141;42.964;21.838;2022-12-18T03:48:08;43.25;;;26.88;;
76322;SDS011;65141;42.964;21.838;2022-12-18T03:55:55;45.77;;;27.17;;
76322;SDS011;65141;42.964;21.838;2022-12-18T03:58:25;43.47;;;27.00;;
76322;SDS011;65141;42.964;21.838;2022-12-18T04:00:52;43.40;;;26.93;;
76322;SDS011;65141;42.964;21.838;2022-12-18T04:03:20;42.22;;;26.60;;
76322;SDS011;65141;42.964;21.838;2022-12-18T04:05:47;45.53;;;27.75;;
76322;SDS011;65141;42.964;21.838;2022-12-18T04:08:15;42.30;;;26.05;;
76322;SDS011;65141;42.964;21.838;2022-12-18T04:10:41;45.23;;;27.70;;
76322;SDS011;65141;42.964;21.838;2022-12-18T04:13:08;44.72;;;28.58;;
76322;SDS011;65141;42.964;21.838;2022-12-18T04:15:34;45.95;;;27.63;;
76322;SDS011;65141;42.964;21.838;2022-12-18T04:18:01;44.30;;;27.77;;
76322;SDS011;65141;42.964;21.838;2022-12-18T04:20:27;43.45;;;26.92;;
76322;SDS011;65141;42.964;21.838;2022-12-18T04:22:53;45.72;;;28.70;;
76322;SDS011;65141;42.964;21.838;2022-12-18T04:25:19;45.17;;;28.58;;
76322;SDS011;65141;42.964;21.838;2022-12-18T04:27:45;43.95;;;27.70;;
76322;SDS011;65141;42.964;21.838;2022-12-18T04:30:11;44.15;;;26.67;;
76322;SDS011;65141;42.964;21.838;2022-12-18T04:32:37;42.03;;;25.73;;
76322;SDS011;65141;42.964;21.838;2022-12-18T04:35:03;40.03;;;24.52;;
76322;SDS011;65141;42.964;21.838;2022-12-18T04:37:32;40.17;;;25.73;;
76322;SDS011;65141;42.964;21.838;2022-12-18T04:39:58;41.20;;;26.25;;
76322;SDS011;65141;42.964;21.838;2022-12-18T04:42:24;39.17;;;24.77;;
76322;SDS011;65141;42.964;21.838;2022-12-18T04:44:50;39.70;;;24.67;;
76322;SDS011;65141;42.964;21.838;2022-12-18T04:47:16;40.47;;;24.75;;
76322;SDS011;65141;42.964;21.838;2022-12-18T04:49:43;41.20;;;25.73;;
76322;SDS011;65141;42.964;21.838;2022-12-18T04:52:09;42.42;;;25.77;;
76322;SDS011;65141;42.964;21.838;2022-12-18T04:54:35;41.90;;;25.90;;
76322;SDS011;65141;42.964;21.838;2022-12-18T04:57:01;41.85;;;25.38;;
76322;SDS011;65141;42.964;21.838;2022-12-18T04:59:27;43.42;;;26.95;;
76322;SDS011;65141;42.964;21.838;2022-12-18T05:01:53;41.95;;;25.70;;
76322;SDS011;65141;42.964;21.838;2022-12-18T05:04:19;40.75;;;25.42;;
76322;SDS011;65141;42.964;21.838;2022-12-18T05:06:45;40.40;;;25.85;;
76322;SDS011;65141;42.964;21.838;2022-12-18T05:09:11;41.10;;;25.33;;
76322;SDS011;65141;42.964;21.838;2022-12-18T05:11:37;41.80;;;26.42;;
76322;SDS011;65141;42.964;21.838;2022-12-18T05:14:03;41.28;;;24.27;;
76322;SDS011;65141;42.964;21.838;2022-12-18T05:16:30;38.65;;;24.17;;
76322;SDS011;65141;42.964;21.838;2022-12-18T05:18:56;40.00;;;24.80;;
76322;SDS011;65141;42.964;21.838;2022-12-18T05:21:22;39.53;;;24.00;;
76322;SDS011;65141;42.964;21.838;2022-12-18T05:23:48;41.70;;;24.97;;
76322;SDS011;65141;42.964;21.838;2022-12-18T05:26:16;40.30;;;25.42;;
76322;SDS011;65141;42.964;21.838;2022-12-18T05:28:43;38.47;;;23.35;;
76322;SDS011;65141;42.964;21.838;2022-12-18T05:31:10;40.03;;;23.15;;
76322;SDS011;65141;42.964;21.838;2022-12-18T05:33:36;39.67;;;24.33;;
76322;SDS011;65141;42.964;21.838;2022-12-18T05:36:04;38.05;;;24.02;;
76322;SDS011;65141;42.964;21.838;2022-12-18T05:38:30;39.70;;;24.83;;
76322;SDS011;65141;42.964;21.838;2022-12-18T05:40:57;39.17;;;24.85;;
76322;SDS011;65141;42.964;21.838;2022-12-18T05:43:24;39.85;;;23.48;;
76322;SDS011;65141;42.964;21.838;2022-12-18T05:45:50;42.25;;;24.58;;
76322;SDS011;65141;42.964;21.838;2022-12-18T05:48:16;39.42;;;23.58;;
76322;SDS011;65141;42.964;21.838;2022-12-18T05:50:43;38.10;;;23.50;;
76322;SDS011;65141;42.964;21.838;2022-12-18T05:53:14;39.95;;;23.45;;
76322;SDS011;65141;42.964;21.838;2022-12-18T05:55:40;37.00;;;22.95;;
76322;SDS011;65141;42.964;21.838;2022-12-18T05:58:08;38.97;;;23.92;;
76322;SDS011;65141;42.964;21.838;2022-12-18T06:00:35;36.40;;;21.30;;
76322;SDS011;65141;42.964;21.838;2022-12-18T06:03:05;38.35;;;23.90;;
76322;SDS011;65141;42.964;21.838;2022-12-18T06:05:34;39.50;;;22.42;;
76322;SDS011;65141;42.964;21.838;2022-12-18T06:08:01;38.25;;;22.20;;
76322;SDS011;65141;42.964;21.838;2022-12-18T06:10:27;38.20;;;23.15;;
76322;SDS011;65141;42.964;21.838;2022-12-18T06:12:53;36.22;;;21.63;;
76322;SDS011;65141;42.964;21.838;2022-12-18T06:15:19;37.95;;;22.20;;
76322;SDS011;65141;42.964;21.838;2022-12-18T06:17:45;36.70;;;22.60;;
76322;SDS011;65141;42.964;21.838;2022-12-18T06:20:11;36.42;;;22.55;;
76322;SDS011;65141;42.964;21.838;2022-12-18T06:22:38;36.63;;;22.10;;
76322;SDS011;65141;42.964;21.838;2022-12-18T06:25:04;37.20;;;22.08;;
76322;SDS011;65141;42.964;21.838;2022-12-18T06:27:31;37.57;;;21.77;;
76322;SDS011;65141;42.964;21.838;2022-12-18T06:29:58;37.07;;;22.13;;
76322;SDS011;65141;42.964;21.838;2022-12-18T06:32:25;39.38;;;23.10;;
76322;SDS011;65141;42.964;21.838;2022-12-18T06:34:51;38.33;;;23.10;;
76322;SDS011;65141;42.964;21.838;2022-12-18T06:37:18;39.45;;;23.48;;
76322;SDS011;65141;42.964;21.838;2022-12-18T06:39:44;38.38;;;22.88;;
76322;SDS011;65141;42.964;21.838;2022-12-18T06:42:10;36.88;;;21.77;;
76322;SDS011;65141;42.964;21.838;2022-12-18T06:44:36;40.00;;;24.45;;
76322;SDS011;65141;42.964;21.838;2022-12-18T06:47:03;37.87;;;23.07;;
76322;SDS011;65141;42.964;21.838;2022-12-18T06:49:29;37.58;;;22.77;;
76322;SDS011;65141;42.964;21.838;2022-12-18T06:51:55;37.78;;;24.67;;
76322;SDS011;65141;42.964;21.838;2022-12-18T06:54:21;41.15;;;24.05;;
76322;SDS011;65141;42.964;21.838;2022-12-18T06:56:47;39.60;;;24.02;;
76322;SDS011;65141;42.964;21.838;2022-12-18T06:59:13;38.40;;;23.85;;
76322;SDS011;65141;42.964;21.838;2022-12-18T07:01:39;40.57;;;24.37;;
76322;SDS011;65141;42.964;21.838;2022-12-18T07:04:06;42.38;;;25.05;;
76322;SDS011;65141;42.964;21.838;2022-12-18T07:06:32;41.30;;;25.38;;
76322;SDS011;65141;42.964;21.838;2022-12-18T07:08:58;43.58;;;26.15;;
76322;SDS011;65141;42.964;21.838;2022-12-18T07:11:24;42.55;;;25.15;;
76322;SDS011;65141;42.964;21.838;2022-12-18T07:13:51;40.05;;;23.27;;
76322;SDS011;65141;42.964;21.838;2022-12-18T07:16:19;41.90;;;25.02;;
76322;SDS011;65141;42.964;21.838;2022-12-18T07:18:45;40.35;;;23.70;;
76322;SDS011;65141;42.964;21.838;2022-12-18T07:21:13;39.00;;;22.57;;
76322;SDS011;65141;42.964;21.838;2022-12-18T07:23:39;38.58;;;22.90;;
76322;SDS011;65141;42.964;21.838;2022-12-18T07:26:06;39.95;;;23.13;;
76322;SDS011;65141;42.964;21.838;2022-12-18T07:28:34;41.53;;;24.07;;
76322;SDS011;65141;42.964;21.838;2022-12-18T07:31:03;42.90;;;25.50;;
76322;SDS011;65141;42.964;21.838;2022-12-18T07:33:31;39.53;;;23.37;;
76322;SDS011;65141;42.964;21.838;2022-12-18T07:35:58;39.78;;;23.88;;
76322;SDS011;65141;42.964;21.838;2022-12-18T07:38:24;37.42;;;23.35;;
76322;SDS011;65141;42.964;21.838;2022-12-18T07:40:50;41.78;;;25.00;;
76322;SDS011;65141;42.964;21.838;2022-12-18T07:43:16;38.92;;;23.65;;
76322;SDS011;65141;42.964;21.838;2022-12-18T07:45:43;37.33;;;22.20;;
76322;SDS011;65141;42.964;21.838;2022-12-18T07:48:09;39.45;;;23.85;;
76322;SDS011;65141;42.964;21.838;2022-12-18T07:50:35;38.63;;;23.42;;
76322;SDS011;65141;42.964;21.838;2022-12-18T07:53:01;37.65;;;22.98;;
76322;SDS011;65141;42.964;21.838;2022-12-18T07:55:30;40.40;;;23.40;;
76322;SDS011;65141;42.964;21.838;2022-12-18T07:57:56;36.78;;;22.38;;
76322;SDS011;65141;42.964;21.838;2022-12-18T08:00:22;41.30;;;23.23;;
76322;SDS011;65141;42.964;21.838;2022-12-18T08:02:49;40.20;;;23.77;;
76322;SDS011;65141;42.964;21.838;2022-12-18T08:05:15;38.97;;;23.27;;
76322;SDS011;65141;42.964;21.838;2022-12-18T08:07:41;37.65;;;22.98;;
76322;SDS011;65141;42.964;21.838;2022-12-18T08:10:07;34.40;;;20.33;;
76322;SDS011;65141;42.964;21.838;2022-12-18T08:12:33;38.60;;;22.20;;
76322;SDS011;65141;42.964;21.838;2022-12-18T08:14:59;36.75;;;21.63;;
76322;SDS011;65141;42.964;21.838;2022-12-18T08:17:25;37.40;;;23.63;;
76322;SDS011;65141;42.964;21.838;2022-12-18T08:19:52;38.45;;;22.40;;
76322;SDS011;65141;42.964;21.838;2022-12-18T08:22:18;37.03;;;22.20;;
76322;SDS011;65141;42.964;21.838;2022-12-18T08:24:44;38.42;;;21.90;;
76322;SDS011;65141;42.964;21.838;2022-12-18T08:27:10;34.60;;;21.42;;
76322;SDS011;65141;42.964;21.838;2022-12-18T08:29:36;36.47;;;21.33;;
76322;SDS011;65141;42.964;21.838;2022-12-18T08:32:03;37.47;;;21.70;;
76322;SDS011;65141;42.964;21.838;2022-12-18T08:34:29;39.50;;;22.40;;
76322;SDS011;65141;42.964;21.838;2022-12-18T08:36:55;37.58;;;24.00;;
76322;SDS011;65141;42.964;21.838;2022-12-18T08:39:21;39.00;;;22.27;;
76322;SDS011;65141;42.964;21.838;2022-12-18T08:41:48;40.08;;;23.75;;
76322;SDS011;65141;42.964;21.838;2022-12-18T08:44:34;38.13;;;22.05;;
76322;SDS011;65141;42.964;21.838;2022-12-18T08:47:04;37.92;;;23.52;;
76322;SDS011;65141;42.964;21.838;2022-12-18T08:49:30;38.90;;;23.83;;
76322;SDS011;65141;42.964;21.838;2022-12-18T08:51:56;36.77;;;21.23;;
76322;SDS011;65141;42.964;21.838;2022-12-18T08:54:23;38.80;;;23.20;;
76322;SDS011;65141;42.964;21.838;2022-12-18T08:56:49;37.75;;;21.85;;
76322;SDS011;65141;42.964;21.838;2022-12-18T08:59:16;38.53;;;22.70;;
76322;SDS011;65141;42.964;21.838;2022-12-18T09:01:42;38.05;;;22.10;;
76322;SDS011;65141;42.964;21.838;2022-12-18T09:04:11;38.13;;;21.95;;
76322;SDS011;65141;42.964;21.838;2022-12-18T09:06:38;37.63;;;22.00;;
76322;SDS011;65141;42.964;21.838;2022-12-18T09:09:05;39.35;;;22.60;;
76322;SDS011;65141;42.964;21.838;2022-12-18T09:11:32;39.10;;;23.03;;
76322;SDS011;65141;42.964;21.838;2022-12-18T09:13:59;37.17;;;22.70;;
76322;SDS011;65141;42.964;21.838;2022-12-18T09:16:26;38.28;;;23.23;;
76322;SDS011;65141;42.964;21.838;2022-12-18T09:18:56;37.75;;;23.30;;
76322;SDS011;65141;42.964;21.838;2022-12-18T09:21:26;35.92;;;22.58;;
76322;SDS011;65141;42.964;21.838;2022-12-18T09:23:54;38.33;;;23.45;;
76322;SDS011;65141;42.964;21.838;2022-12-18T09:26:20;36.13;;;22.17;;
76322;SDS011;65141;42.964;21.838;2022-12-18T09:28:47;40.00;;;24.67;;
76322;SDS011;65141;42.964;21.838;2022-12-18T09:31:17;37.60;;;23.40;;
76322;SDS011;65141;42.964;21.838;2022-12-18T09:33:43;39.50;;;23.30;;
76322;SDS011;65141;42.964;21.838;2022-12-18T09:36:11;39.13;;;23.00;;
76322;SDS011;65141;42.964;21.838;2022-12-18T09:38:38;40.85;;;23.75;;
76322;SDS011;65141;42.964;21.838;2022-12-18T09:43:52;42.60;;;24.73;;
76322;SDS011;65141;42.964;21.838;2022-12-18T09:46:30;43.17;;;24.80;;
76322;SDS011;65141;42.964;21.838;2022-12-18T09:48:59;43.30;;;25.02;;
76322;SDS011;65141;42.964;21.838;2022-12-18T09:51:27;43.72;;;24.65;;
76322;SDS011;65141;42.964;21.838;2022-12-18T09:53:59;39.72;;;24.30;;
76322;SDS011;65141;42.964;21.838;2022-12-18T09:56:28;41.90;;;25.65;;
76322;SDS011;65141;42.964;21.838;2022-12-18T09:58:55;43.88;;;25.50;;
76322;SDS011;65141;42.964;21.838;2022-12-18T10:01:23;41.30;;;25.27;;
76322;SDS011;65141;42.964;21.838;2022-12-18T10:03:49;40.83;;;23.98;;
76322;SDS011;65141;42.964;21.838;2022-12-18T10:08:53;43.33;;;25.20;;
76322;SDS011;65141;42.964;21.838;2022-12-18T10:13:54;42.42;;;25.85;;
76322;SDS011;65141;42.964;21.838;2022-12-18T10:16:28;39.95;;;24.40;;
76322;SDS011;65141;42.964;21.838;2022-12-18T10:19:01;40.97;;;24.92;;
76322;SDS011;65141;42.964;21.838;2022-12-18T10:24:02;42.58;;;25.73;;
76322;SDS011;65141;42.964;21.838;2022-12-18T10:26:29;46.05;;;26.58;;
76322;SDS011;65141;42.964;21.838;2022-12-18T10:28:57;44.33;;;26.10;;
76322;SDS011;65141;42.964;21.838;2022-12-18T10:31:24;46.53;;;26.88;;
76322;SDS011;65141;42.964;21.838;2022-12-18T10:33:50;44.38;;;26.08;;
76322;SDS011;65141;42.964;21.838;2022-12-18T10:36:17;47.13;;;26.10;;
76322;SDS011;65141;42.964;21.838;2022-12-18T10:38:43;44.50;;;26.47;;
76322;SDS011;65141;42.964;21.838;2022-12-18T10:43:46;45.22;;;25.27;;
76322;SDS011;65141;42.964;21.838;2022-12-18T10:46:19;45.00;;;25.80;;
76322;SDS011;65141;42.964;21.838;2022-12-18T10:53:51;55.38;;;30.40;;
76322;SDS011;65141;42.964;21.838;2022-12-18T10:56:19;47.15;;;27.42;;
76322;SDS011;65141;42.964;21.838;2022-12-18T10:58:46;46.83;;;26.50;;
76322;SDS011;65141;42.964;21.838;2022-12-18T11:01:20;45.37;;;26.40;;
76322;SDS011;65141;42.964;21.838;2022-12-18T11:06:17;44.42;;;26.50;;
76322;SDS011;65141;42.964;21.838;2022-12-18T11:08:57;45.97;;;26.05;;
76322;SDS011;65141;42.964;21.838;2022-12-18T11:11:24;47.10;;;27.30;;
76322;SDS011;65141;42.964;21.838;2022-12-18T11:16:19;49.45;;;30.08;;
76322;SDS011;65141;42.964;21.838;2022-12-18T11:18:45;46.67;;;26.80;;
76322;SDS011;65141;42.964;21.838;2022-12-18T11:21:12;45.60;;;28.40;;
76322;SDS011;65141;42.964;21.838;2022-12-18T11:23:45;49.27;;;28.07;;
76322;SDS011;65141;42.964;21.838;2022-12-18T11:26:12;47.40;;;26.95;;
76322;SDS011;65141;42.964;21.838;2022-12-18T11:33:37;43.58;;;26.33;;
76322;SDS011;65141;42.964;21.838;2022-12-18T11:36:05;42.97;;;25.52;;
76322;SDS011;65141;42.964;21.838;2022-12-18T11:38:42;44.15;;;26.50;;
76322;SDS011;65141;42.964;21.838;2022-12-18T11:43:50;45.70;;;26.98;;
76322;SDS011;65141;42.964;21.838;2022-12-18T11:46:23;43.10;;;25.42;;
76322;SDS011;65141;42.964;21.838;2022-12-18T11:48:52;42.63;;;25.60;;
76322;SDS011;65141;42.964;21.838;2022-12-18T11:51:25;44.70;;;25.80;;
76322;SDS011;65141;42.964;21.838;2022-12-18T11:53:54;45.00;;;25.73;;
76322;SDS011;65141;42.964;21.838;2022-12-18T12:01:30;47.03;;;26.58;;
76322;SDS011;65141;42.964;21.838;2022-12-18T12:09:33;43.00;;;25.50;;
76322;SDS011;65141;42.964;21.838;2022-12-18T12:19:59;41.53;;;25.75;;
76322;SDS011;65141;42.964;21.838;2022-12-18T12:25:19;42.97;;;25.08;;
76322;SDS011;65141;42.964;21.838;2022-12-18T12:33:11;43.42;;;26.25;;
76322;SDS011;65141;42.964;21.838;2022-12-18T12:38:11;44.35;;;26.77;;
76322;SDS011;65141;42.964;21.838;2022-12-18T12:40:45;42.65;;;25.42;;
76322;SDS011;65141;42.964;21.838;2022-12-18T12:46:03;42.93;;;25.57;;
76322;SDS011;65141;42.964;21.838;2022-12-18T12:51:04;44.03;;;26.25;;
76322;SDS011;65141;42.964;21.838;2022-12-18T12:53:34;45.42;;;27.50;;
76322;SDS011;65141;42.964;21.838;2022-12-18T12:56:01;48.72;;;29.50;;
76322;SDS011;65141;42.964;21.838;2022-12-18T13:03:39;44.80;;;26.93;;
76322;SDS011;65141;42.964;21.838;2022-12-18T13:06:29;45.65;;;27.40;;
76322;SDS011;65141;42.964;21.838;2022-12-18T13:08:58;44.27;;;27.03;;
76322;SDS011;65141;42.964;21.838;2022-12-18T13:11:29;45.15;;;27.30;;
76322;SDS011;65141;42.964;21.838;2022-12-18T13:14:21;47.63;;;27.42;;
76322;SDS011;65141;42.964;21.838;2022-12-18T13:16:48;44.87;;;26.97;;
76322;SDS011;65141;42.964;21.838;2022-12-18T13:19:23;44.28;;;27.55;;
76322;SDS011;65141;42.964;21.838;2022-12-18T13:21:52;42.47;;;26.02;;
76322;SDS011;65141;42.964;21.838;2022-12-18T13:24:26;43.53;;;26.88;;
76322;SDS011;65141;42.964;21.838;2022-12-18T13:26:54;44.33;;;26.13;;
76322;SDS011;65141;42.964;21.838;2022-12-18T13:32:21;43.63;;;26.48;;
76322;SDS011;65141;42.964;21.838;2022-12-18T13:34:48;44.60;;;27.50;;
76322;SDS011;65141;42.964;21.838;2022-12-18T13:37:56;42.97;;;25.27;;
76322;SDS011;65141;42.964;21.838;2022-12-18T13:40:20;43.28;;;25.10;;
76322;SDS011;65141;42.964;21.838;2022-12-18T13:42:50;48.17;;;27.87;;
76322;SDS011;65141;42.964;21.838;2022-12-18T13:45:35;44.33;;;26.33;;
76322;SDS011;65141;42.964;21.838;2022-12-18T13:48:03;44.60;;;27.00;;
76322;SDS011;65141;42.964;21.838;2022-12-18T13:50:29;45.17;;;26.73;;
76322;SDS011;65141;42.964;21.838;2022-12-18T13:52:56;43.58;;;26.30;;
76322;SDS011;65141;42.964;21.838;2022-12-18T13:55:23;44.63;;;27.00;;
76322;SDS011;65141;42.964;21.838;2022-12-18T13:57:49;45.80;;;27.77;;
76322;SDS011;65141;42.964;21.838;2022-12-18T14:02:44;45.15;;;26.42;;
76322;SDS011;65141;42.964;21.838;2022-12-18T14:05:26;43.78;;;26.70;;
76322;SDS011;65141;42.964;21.838;2022-12-18T14:07:53;41.95;;;24.85;;
76322;SDS011;65141;42.964;21.838;2022-12-18T14:10:20;42.25;;;25.75;;
76322;SDS011;65141;42.964;21.838;2022-12-18T14:12:47;41.85;;;24.20;;
76322;SDS011;65141;42.964;21.838;2022-12-18T14:20:25;36.60;;;23.08;;
76322;SDS011;65141;42.964;21.838;2022-12-18T14:22:51;39.45;;;24.23;;
76322;SDS011;65141;42.964;21.838;2022-12-18T14:27:47;40.33;;;24.08;;
76322;SDS011;65141;42.964;21.838;2022-12-18T14:30:24;40.97;;;24.52;;
76322;SDS011;65141;42.964;21.838;2022-12-18T14:35:56;38.92;;;23.30;;
76322;SDS011;65141;42.964;21.838;2022-12-18T14:38:32;40.23;;;25.30;;
76322;SDS011;65141;42.964;21.838;2022-12-18T14:43:25;41.40;;;24.93;;
76322;SDS011;65141;42.964;21.838;2022-12-18T14:45:51;42.35;;;25.40;;
76322;SDS011;65141;42.964;21.838;2022-12-18T14:48:22;41.47;;;25.77;;
76322;SDS011;65141;42.964;21.838;2022-12-18T14:50:57;39.60;;;24.90;;
76322;SDS011;65141;42.964;21.838;2022-12-18T14:53:29;42.00;;;25.77;;
76322;SDS011;65141;42.964;21.838;2022-12-18T14:55:57;37.03;;;22.95;;
76322;SDS011;65141;42.964;21.838;2022-12-18T14:58:24;39.72;;;24.85;;
76322;SDS011;65141;42.964;21.838;2022-12-18T15:00:50;40.05;;;23.83;;
76322;SDS011;65141;42.964;21.838;2022-12-18T15:03:19;42.40;;;25.15;;
76322;SDS011;65141;42.964;21.838;2022-12-18T15:05:46;40.10;;;24.58;;
76322;SDS011;65141;42.964;21.838;2022-12-18T15:08:34;39.30;;;24.40;;
76322;SDS011;65141;42.964;21.838;2022-12-18T15:11:01;41.70;;;24.95;;
76322;SDS011;65141;42.964;21.838;2022-12-18T15:13:27;39.00;;;23.75;;
76322;SDS011;65141;42.964;21.838;2022-12-18T15:15:54;39.47;;;23.77;;
76322;SDS011;65141;42.964;21.838;2022-12-18T15:18:22;39.88;;;22.98;;
76322;SDS011;65141;42.964;21.838;2022-12-18T15:20:50;36.95;;;21.95;;
76322;SDS011;65141;42.964;21.838;2022-12-18T15:23:19;36.83;;;22.70;;
76322;SDS011;65141;42.964;21.838;2022-12-18T15:25:47;36.22;;;22.50;;
76322;SDS011;65141;42.964;21.838;2022-12-18T15:28:15;36.67;;;21.40;;
76322;SDS011;65141;42.964;21.838;2022-12-18T15:33:34;37.10;;;22.13;;
76322;SDS011;65141;42.964;21.838;2022-12-18T15:36:01;37.50;;;23.47;;
76322;SDS011;65141;42.964;21.838;2022-12-18T15:38:28;37.03;;;22.47;;
76322;SDS011;65141;42.964;21.838;2022-12-18T15:40:54;34.65;;;22.08;;
76322;SDS011;65141;42.964;21.838;2022-12-18T15:43:23;37.25;;;23.70;;
76322;SDS011;65141;42.964;21.838;2022-12-18T15:46:02;35.03;;;21.58;;
76322;SDS011;65141;42.964;21.838;2022-12-18T15:48:29;34.97;;;21.65;;
76322;SDS011;65141;42.964;21.838;2022-12-18T15:50:55;36.23;;;22.10;;
76322;SDS011;65141;42.964;21.838;2022-12-18T15:53:23;37.42;;;22.38;;
76322;SDS011;65141;42.964;21.838;2022-12-18T15:55:50;33.95;;;21.38;;
76322;SDS011;65141;42.964;21.838;2022-12-18T15:58:35;36.20;;;21.48;;
76322;SDS011;65141;42.964;21.838;2022-12-18T16:01:01;34.60;;;21.48;;
76322;SDS011;65141;42.964;21.838;2022-12-18T16:03:27;37.10;;;22.38;;
76322;SDS011;65141;42.964;21.838;2022-12-18T16:05:53;35.58;;;22.52;;
76322;SDS011;65141;42.964;21.838;2022-12-18T16:08:19;36.70;;;21.77;;
76322;SDS011;65141;42.964;21.838;2022-12-18T16:10:45;35.40;;;22.38;;
76322;SDS011;65141;42.964;21.838;2022-12-18T16:13:12;36.95;;;22.08;;